Time;durP1;ratioP1;P1;durP2;ratioP2;P2;SDS_P1;SDS_P2;PMS_P1;PMS_P2;Temp;Humidity;BMP_temperature;BMP_pressure;BME280_temperature;BME280_humidity;BME280_pressure;Samples;Min_cycle;Max_cycle;Signal;HPM_P1;HPM_P2
2021/11/26 00:01:56;;;;;;;;;;;;;;;;;;5122258;27;19969;-72
2021/11/26 00:04:21;;;;;;;;;;;;;;;;;;5137553;27;19922;-71
2021/11/26 00:06:47;;;;;;;;;;;;;;;;;;5135489;27;19927;-72
2021/11/26 00:09:12;;;;;;;;;;;;;;;;;;5123020;27;20389;-71
2021/11/26 00:11:38;;;;;;;;;;;;;;;;;;5133020;27;19920;-72
2021/11/26 00:14:27;;;;;;;;;;;;;;;;;;5121495;27;19923;-71
2021/11/26 00:16:56;;;;;;;;;;;;;;;;;;5132981;27;20415;-71
2021/11/26 00:19:21;;;;;;;;;;;;;;;;;;5128412;27;19927;-71
2021/11/26 00:21:47;;;;;;;;;;;;;;;;;;5134051;27;19915;-71
2021/11/26 00:24:13;;;;;;;;;;;;;;;;;;5125812;27;20263;-71
2021/11/26 00:26:39;;;;;;;;;;;;;;;;;;5137142;27;19999;-72
2021/11/26 00:29:04;;;;;;;;;;;;;;;;;;5136231;27;19951;-72
2021/11/26 00:31:30;;;;;;;;;;;;;;;;;;5134230;27;19919;-78
2021/11/26 00:33:55;;;;;;;;;;;;;;;;;;5116761;27;19999;-71
2021/11/26 00:36:21;;;;;;;;;;;;;;;;;;5125110;27;19916;-71
2021/11/26 00:38:46;;;;;;;;;;;;;;;;;;5121761;27;20432;-71
2021/11/26 00:41:12;;;;;;;;;;;;;;;;;;5126154;27;19927;-71
2021/11/26 00:43:37;;;;;;;;;;;;;;;;;;5125156;27;20050;-71
2021/11/26 00:46:03;;;;;;;;;;;;;;;;;;5122983;27;19926;-71
2021/11/26 00:48:28;;;;;;;;;;;;;;;;;;5129869;27;20626;-71
2021/11/26 00:50:54;;;;;;;;;;;;;;;;;;5128520;27;19919;-71
2021/11/26 00:53:19;;;;;;;;;;;;;;;;;;5116001;28;19919;-71
2021/11/26 00:55:45;;;;;;;;;;;;;;;;;;5134249;27;19920;-71
2021/11/26 00:58:10;;;;;;;;;;;;;;;;;;5132075;27;19915;-71
2021/11/26 01:00:36;;;;;;;;;;;;;;;;;;5117532;27;19934;-71
2021/11/26 01:03:02;;;;;;;;;;;;;;;;;;5118084;27;19957;-71
2021/11/26 01:05:28;;;;;;;;;;;;;;;;;;5123900;27;19969;-71
2021/11/26 01:07:54;;;;;;;;;;;;;;;;;;5123429;27;19925;-71
2021/11/26 01:10:20;;;;;;;;;;;;;;;;;;5124267;27;20323;-71
2021/11/26 01:12:46;;;;;;;;;;;;;;;;;;5123917;27;19919;-71
2021/11/26 01:15:12;;;;;;;;;;;;;;;;;;5120786;27;19999;-71
2021/11/26 01:17:41;;;;;;;;;;;;;;;;;;5115390;28;20267;-72
2021/11/26 01:20:06;;;;;;;;;;;;;;;;;;5124839;27;19964;-71
2021/11/26 01:22:32;;;;;;;;;;;;;;;;;;5126186;27;19916;-72
2021/11/26 01:24:57;;;;;;;;;;;;;;;;;;5116199;27;19961;-72
2021/11/26 01:27:23;;;;;;;;;;;;;;;;;;5115745;27;19916;-72
2021/11/26 01:29:48;;;;;;;;;;;;;;;;;;5131426;27;19923;-72
2021/11/26 01:32:14;;;;;;;;;;;;;;;;;;5119808;27;20324;-72
2021/11/26 01:34:39;;;;;;;;;;;;;;;;;;5121098;27;19911;-72
2021/11/26 01:37:05;;;;;;;;;;;;;;;;;;5135739;27;20286;-71
2021/11/26 01:39:30;;;;;;;;;;;;;;;;;;5136739;27;20013;-73
2021/11/26 01:41:56;;;;;;;;;;;;;;;;;;5135831;27;19912;-71
2021/11/26 01:44:22;;;;;;;;;;;;;;;;;;5136762;27;20384;-71
2021/11/26 01:46:47;;;;;;;;;;;;;;;;;;5157187;27;19917;-71
2021/11/26 01:49:13;;;;;;;;;;;;;;;;;;5145812;27;20020;-71
2021/11/26 01:51:39;;;;;;;;;;;;;;;;;;5135936;27;20326;-72
2021/11/26 01:54:05;;;;;;;;;;;;;;;;;;5135761;27;19923;-71
2021/11/26 01:56:31;;;;;;;;;;;;;;;;;;5135467;27;19917;-71
2021/11/26 01:58:57;;;;;;;;;;;;;;;;;;5135390;27;19915;-71
2021/11/26 02:01:23;;;;;;;;;;;;;;;;;;5116265;27;19915;-71
2021/11/26 02:03:48;;;;;;;;;;;;;;;;;;5114773;28;19916;-71
2021/11/26 02:06:14;;;;;;;;;;;;;;;;;;5114907;28;19998;-71
2021/11/26 02:08:39;;;;;;;;;;;;;;;;;;5113626;28;19927;-71
2021/11/26 02:11:05;;;;;;;;;;;;;;;;;;5114839;28;19923;-71
2021/11/26 02:13:31;;;;;;;;;;;;;;;;;;5114528;28;19916;-72
2021/11/26 02:15:59;;;;;;;;;;;;;;;;;;5114473;28;19963;-71
2021/11/26 02:18:24;;;;;;;;;;;;;;;;;;5114839;28;19916;-71
2021/11/26 02:20:53;;;;;;;;;;;;;;;;;;5113648;28;20225;-71
2021/11/26 02:23:18;;;;;;;;;;;;;;;;;;5115009;28;19999;-71
2021/11/26 02:25:44;;;;;;;;;;;;;;;;;;5114349;28;19951;-71
2021/11/26 02:28:10;;;;;;;;;;;;;;;;;;5114383;28;19931;-71
2021/11/26 02:30:36;;;;;;;;;;;;;;;;;;5114383;28;20375;-71
2021/11/26 02:33:09;;;;;;;;;;;;;;;;;;5113069;28;19923;-71
2021/11/26 02:35:34;;;;;;;;;;;;;;;;;;5114655;28;20271;-71
2021/11/26 02:38:01;;;;;;;;;;;;;;;;;;5114325;28;19922;-72
2021/11/26 02:40:27;;;;;;;;;;;;;;;;;;5114416;28;19916;-71
2021/11/26 02:42:54;;;;;;;;;;;;;;;;;;5114406;28;19916;-71
2021/11/26 02:45:20;;;;;;;;;;;;;;;;;;5114574;28;20319;-72
2021/11/26 02:47:47;;;;;;;;;;;;;;;;;;5114236;28;20447;-73
2021/11/26 02:50:13;;;;;;;;;;;;;;;;;;5114192;28;20403;-72
2021/11/26 02:52:39;;;;;;;;;;;;;;;;;;5115381;28;20331;-72
2021/11/26 02:55:06;;;;;;;;;;;;;;;;;;5118985;28;20324;-73
2021/11/26 02:57:32;;;;;;;;;;;;;;;;;;5118283;28;19916;-72
2021/11/26 02:59:57;;;;;;;;;;;;;;;;;;5118200;27;19916;-72
2021/11/26 03:02:23;;;;;;;;;;;;;;;;;;5118265;28;19923;-72
2021/11/26 03:04:48;;;;;;;;;;;;;;;;;;5118305;28;20507;-72
2021/11/26 03:07:14;;;;;;;;;;;;;;;;;;5118112;28;19922;-72
2021/11/26 03:09:39;;;;;;;;;;;;;;;;;;5116826;28;19946;-72
2021/11/26 03:12:06;;;;;;;;;;;;;;;;;;5118195;28;19930;-72
2021/11/26 03:14:31;;;;;;;;;;;;;;;;;;5118009;28;20286;-73
2021/11/26 03:16:57;;;;;;;;;;;;;;;;;;5125816;27;19926;-73
2021/11/26 03:19:22;;;;;;;;;;;;;;;;;;5138354;27;19920;-72
2021/11/26 03:21:48;;;;;;;;;;;;;;;;;;5138631;27;19915;-72
2021/11/26 03:24:13;;;;;;;;;;;;;;;;;;5138555;27;19915;-71
2021/11/26 03:26:39;;;;;;;;;;;;;;;;;;5138659;27;19920;-72
2021/11/26 03:29:05;;;;;;;;;;;;;;;;;;5138261;27;19915;-72
2021/11/26 03:31:31;;;;;;;;;;;;;;;;;;5138476;27;19916;-75
2021/11/26 03:33:56;;;;;;;;;;;;;;;;;;5138368;27;19923;-72
2021/11/26 03:36:22;;;;;;;;;;;;;;;;;;5138175;27;20014;-72
2021/11/26 03:38:47;;;;;;;;;;;;;;;;;;5138089;27;19915;-72
2021/11/26 03:41:13;;;;;;;;;;;;;;;;;;5138359;27;19922;-72
2021/11/26 03:43:38;;;;;;;;;;;;;;;;;;5138025;27;19938;-72
2021/11/26 03:46:04;;;;;;;;;;;;;;;;;;5137977;27;20337;-71
2021/11/26 03:48:29;;;;;;;;;;;;;;;;;;5138161;27;19919;-72
2021/11/26 03:50:55;;;;;;;;;;;;;;;;;;5137758;27;19916;-72
2021/11/26 03:53:20;;;;;;;;;;;;;;;;;;5138678;27;19915;-72
2021/11/26 03:55:45;;;;;;;;;;;;;;;;;;5137733;27;19922;-72
2021/11/26 03:58:11;;;;;;;;;;;;;;;;;;5137744;27;19915;-72
2021/11/26 04:00:36;;;;;;;;;;;;;;;;;;5137364;27;20387;-72
2021/11/26 04:03:02;;;;;;;;;;;;;;;;;;5137703;27;20339;-72
2021/11/26 04:05:27;;;;;;;;;;;;;;;;;;5135019;27;19915;-72
2021/11/26 04:07:53;;;;;;;;;;;;;;;;;;5137588;27;19920;-72
2021/11/26 04:10:19;;;;;;;;;;;;;;;;;;5137487;27;19926;-72
2021/11/26 04:12:45;;;;;;;;;;;;;;;;;;5137552;27;19915;-72
2021/11/26 04:15:13;;;;;;;;;;;;;;;;;;5137523;27;19916;-72
2021/11/26 04:17:39;;;;;;;;;;;;;;;;;;5137080;27;20289;-72
2021/11/26 04:20:05;;;;;;;;;;;;;;;;;;5137294;27;20018;-73
2021/11/26 04:22:31;;;;;;;;;;;;;;;;;;5137160;27;19964;-73
2021/11/26 04:24:56;;;;;;;;;;;;;;;;;;5137427;27;19919;-72
2021/11/26 04:27:22;;;;;;;;;;;;;;;;;;5135269;27;20526;-72
2021/11/26 04:29:47;;;;;;;;;;;;;;;;;;5136314;27;19915;-72
2021/11/26 04:32:14;;;;;;;;;;;;;;;;;;5136453;27;20005;-72
2021/11/26 04:34:39;;;;;;;;;;;;;;;;;;5135167;27;20370;-72
2021/11/26 04:37:05;;;;;;;;;;;;;;;;;;5136367;27;19960;-72
2021/11/26 04:39:30;;;;;;;;;;;;;;;;;;5136095;27;19964;-73
2021/11/26 04:41:56;;;;;;;;;;;;;;;;;;5136508;27;20270;-72
2021/11/26 04:44:21;;;;;;;;;;;;;;;;;;5136258;27;19964;-72
2021/11/26 04:46:47;;;;;;;;;;;;;;;;;;5136253;27;19935;-72
2021/11/26 04:49:12;;;;;;;;;;;;;;;;;;5136059;27;19915;-72
2021/11/26 04:51:38;;;;;;;;;;;;;;;;;;5135912;27;19915;-73
2021/11/26 04:54:04;;;;;;;;;;;;;;;;;;5136070;27;20395;-72
2021/11/26 04:56:30;;;;;;;;;;;;;;;;;;5136062;27;19920;-72
2021/11/26 04:58:55;;;;;;;;;;;;;;;;;;5135976;27;19921;-72
2021/11/26 05:01:21;;;;;;;;;;;;;;;;;;5135875;27;19915;-74
2021/11/26 05:03:46;;;;;;;;;;;;;;;;;;5136168;27;19961;-72
2021/11/26 05:06:11;;;;;;;;;;;;;;;;;;5136552;27;20452;-72
2021/11/26 05:08:37;;;;;;;;;;;;;;;;;;5143552;27;19916;-72
2021/11/26 05:11:02;;;;;;;;;;;;;;;;;;5148531;27;19994;-72
2021/11/26 05:13:30;;;;;;;;;;;;;;;;;;5136328;27;20431;-72
2021/11/26 05:15:56;;;;;;;;;;;;;;;;;;5135674;27;19915;-72
2021/11/26 05:18:26;;;;;;;;;;;;;;;;;;5136547;27;19968;-72
2021/11/26 05:20:52;;;;;;;;;;;;;;;;;;5134868;27;19963;-72
2021/11/26 05:23:18;;;;;;;;;;;;;;;;;;5135983;27;20341;-72
2021/11/26 05:25:43;;;;;;;;;;;;;;;;;;5128016;27;20290;-72
2021/11/26 05:28:09;;;;;;;;;;;;;;;;;;5135901;27;19927;-72
2021/11/26 05:30:34;;;;;;;;;;;;;;;;;;5124111;27;19923;-72
2021/11/26 05:33:01;;;;;;;;;;;;;;;;;;5114066;28;20358;-72
2021/11/26 05:35:26;;;;;;;;;;;;;;;;;;5115313;28;19916;-72
2021/11/26 05:37:52;;;;;;;;;;;;;;;;;;5115200;28;19922;-72
2021/11/26 05:40:19;;;;;;;;;;;;;;;;;;5118106;27;19927;-72
2021/11/26 05:42:45;;;;;;;;;;;;;;;;;;5123035;27;19919;-71
2021/11/26 05:45:11;;;;;;;;;;;;;;;;;;5127091;27;20311;-71
2021/11/26 05:47:37;;;;;;;;;;;;;;;;;;5134021;27;19916;-74
2021/11/26 05:50:06;;;;;;;;;;;;;;;;;;5118830;27;20294;-72
2021/11/26 05:52:31;;;;;;;;;;;;;;;;;;5122332;27;19964;-83
2021/11/26 05:54:57;;;;;;;;;;;;;;;;;;5118877;27;19915;-73
2021/11/26 05:57:22;;;;;;;;;;;;;;;;;;5128420;27;20034;-76
2021/11/26 05:59:47;;;;;;;;;;;;;;;;;;5124237;27;19920;-76
2021/11/26 06:02:13;;;;;;;;;;;;;;;;;;5123862;27;19969;-76
2021/11/26 06:04:38;;;;;;;;;;;;;;;;;;5120054;27;19919;-77
2021/11/26 06:07:04;;;;;;;;;;;;;;;;;;5133989;27;19962;-77
2021/11/26 06:09:29;;;;;;;;;;;;;;;;;;5135279;27;19926;-76
2021/11/26 06:11:55;;;;;;;;;;;;;;;;;;5133917;27;19921;-76
2021/11/26 06:14:20;;;;;;;;;;;;;;;;;;5135158;27;19920;-76
2021/11/26 06:16:46;;;;;;;;;;;;;;;;;;5134824;27;19919;-75
2021/11/26 06:19:11;;;;;;;;;;;;;;;;;;5135397;27;19938;-76
2021/11/26 06:21:37;;;;;;;;;;;;;;;;;;5135046;27;19911;-75
2021/11/26 06:24:02;;;;;;;;;;;;;;;;;;5134939;27;19915;-86
2021/11/26 06:26:29;;;;;;;;;;;;;;;;;;5135229;27;20014;-84
2021/11/26 06:28:54;;;;;;;;;;;;;;;;;;5133409;27;19915;-76
2021/11/26 06:31:20;;;;;;;;;;;;;;;;;;5133842;27;19923;-73
2021/11/26 06:33:45;;;;;;;;;;;;;;;;;;5133641;27;19919;-74
2021/11/26 06:36:11;;;;;;;;;;;;;;;;;;5134908;27;19915;-75
2021/11/26 06:38:36;;;;;;;;;;;;;;;;;;5124067;28;19923;-83
2021/11/26 06:41:02;;;;;;;;;;;;;;;;;;5119999;27;19920;-74
2021/11/26 06:43:28;;;;;;;;;;;;;;;;;;5115540;28;19981;-73
2021/11/26 06:45:54;;;;;;;;;;;;;;;;;;5114528;28;19915;-91
2021/11/26 06:48:19;;;;;;;;;;;;;;;;;;5119834;28;20065;-74
2021/11/26 06:50:45;;;;;;;;;;;;;;;;;;5122052;28;19919;-74
2021/11/26 06:53:10;;;;;;;;;;;;;;;;;;5126924;28;19924;-74
2021/11/26 06:55:36;;;;;;;;;;;;;;;;;;5122721;28;20631;-75
2021/11/26 06:58:01;;;;;;;;;;;;;;;;;;5123302;28;19916;-83
2021/11/26 07:00:27;;;;;;;;;;;;;;;;;;5133381;28;19929;-73
2021/11/26 07:02:52;;;;;;;;;;;;;;;;;;5134734;28;20316;-74
2021/11/26 07:05:18;;;;;;;;;;;;;;;;;;5134827;28;19985;-88
2021/11/26 07:07:44;;;;;;;;;;;;;;;;;;5134701;27;19960;-74
2021/11/26 07:10:13;;;;;;;;;;;;;;;;;;5134882;27;19920;-73
2021/11/26 07:12:39;;;;;;;;;;;;;;;;;;5134613;27;19971;-76
2021/11/26 07:15:06;;;;;;;;;;;;;;;;;;5134668;27;19923;-75
2021/11/26 07:17:32;;;;;;;;;;;;;;;;;;5134624;28;19926;-74
2021/11/26 07:19:57;;;;;;;;;;;;;;;;;;5134634;27;19916;-74
2021/11/26 07:22:23;;;;;;;;;;;;;;;;;;5134603;27;20285;-73
2021/11/26 07:24:51;;;;;;;;;;;;;;;;;;5133361;28;19923;-74
2021/11/26 07:27:17;;;;;;;;;;;;;;;;;;5134448;27;19915;-74
2021/11/26 07:29:43;;;;;;;;;;;;;;;;;;5134650;28;19923;-79
2021/11/26 07:32:09;;;;;;;;;;;;;;;;;;5134719;27;19915;-77
2021/11/26 07:34:34;;;;;;;;;;;;;;;;;;5134348;27;19919;-79
2021/11/26 07:37:00;;;;;;;;;;;;;;;;;;5134307;28;19915;-74
2021/11/26 07:39:32;;;;;;;;;;;;;;;;;;5136614;27;19915;-77
2021/11/26 07:41:57;;;;;;;;;;;;;;;;;;5138374;27;19918;-74
2021/11/26 07:44:23;;;;;;;;;;;;;;;;;;5138059;27;19915;-74
2021/11/26 07:46:48;;;;;;;;;;;;;;;;;;5137992;27;19918;-74
2021/11/26 07:49:13;;;;;;;;;;;;;;;;;;5136502;27;19969;-74
2021/11/26 07:51:39;;;;;;;;;;;;;;;;;;5137961;27;19923;-82
2021/11/26 07:54:04;;;;;;;;;;;;;;;;;;5137844;27;19967;-73
2021/11/26 07:56:30;;;;;;;;;;;;;;;;;;5153927;27;19923;-73
2021/11/26 07:58:55;;;;;;;;;;;;;;;;;;5130659;27;20294;-73
2021/11/26 08:01:21;;;;;;;;;;;;;;;;;;5132937;27;19923;-73
2021/11/26 08:03:46;;;;;;;;;;;;;;;;;;5125227;27;19926;-74
2021/11/26 08:06:12;;;;;;;;;;;;;;;;;;5121825;27;19987;-73
2021/11/26 08:08:38;;;;;;;;;;;;;;;;;;5123400;27;19928;-73
2021/11/26 08:11:04;;;;;;;;;;;;;;;;;;5128906;27;19920;-74
2021/11/26 08:13:29;;;;;;;;;;;;;;;;;;5130323;27;19958;-89
2021/11/26 08:15:55;;;;;;;;;;;;;;;;;;5126571;27;19926;-79
2021/11/26 08:18:20;;;;;;;;;;;;;;;;;;5132141;27;20006;-73
2021/11/26 08:20:46;;;;;;;;;;;;;;;;;;5134981;27;19922;-73
2021/11/26 08:23:11;;;;;;;;;;;;;;;;;;5142010;27;19915;-73
2021/11/26 08:25:37;;;;;;;;;;;;;;;;;;5126095;27;19916;-72
2021/11/26 08:28:04;;;;;;;;;;;;;;;;;;5124946;27;20893;-75
2021/11/26 08:30:29;;;;;;;;;;;;;;;;;;5121502;27;19927;-76
2021/11/26 08:32:55;;;;;;;;;;;;;;;;;;5127826;27;19968;-73
2021/11/26 08:35:21;;;;;;;;;;;;;;;;;;5118571;27;20336;-75
2021/11/26 08:37:47;;;;;;;;;;;;;;;;;;5119741;27;19920;-73
2021/11/26 08:40:13;;;;;;;;;;;;;;;;;;5124122;27;19965;-76
2021/11/26 08:42:38;;;;;;;;;;;;;;;;;;5125516;27;19919;-74
2021/11/26 08:45:04;;;;;;;;;;;;;;;;;;5118837;27;19920;-83
2021/11/26 08:47:29;;;;;;;;;;;;;;;;;;5116808;28;20010;-76
2021/11/26 08:49:55;;;;;;;;;;;;;;;;;;5115567;28;19916;-78
2021/11/26 08:52:21;;;;;;;;;;;;;;;;;;5116380;28;19915;-81
2021/11/26 08:54:47;;;;;;;;;;;;;;;;;;5131925;27;19912;-82
2021/11/26 08:57:15;;;;;;;;;;;;;;;;;;5116105;28;20292;-76
2021/11/26 08:59:41;;;;;;;;;;;;;;;;;;5117764;27;19919;-72
2021/11/26 09:02:06;;;;;;;;;;;;;;;;;;5117032;27;19915;-74
2021/11/26 09:04:32;;;;;;;;;;;;;;;;;;5115184;28;19915;-73
2021/11/26 09:06:58;;;;;;;;;;;;;;;;;;5118045;28;19916;-74
2021/11/26 09:09:23;;;;;;;;;;;;;;;;;;5115515;28;20014;-73
2021/11/26 09:11:50;;;;;;;;;;;;;;;;;;5116012;28;19919;-73
2021/11/26 09:14:16;;;;;;;;;;;;;;;;;;5115919;28;19911;-73
2021/11/26 09:16:42;;;;;;;;;;;;;;;;;;5116313;28;19919;-72
2021/11/26 09:19:08;;;;;;;;;;;;;;;;;;5117423;28;20291;-76
2021/11/26 09:21:34;;;;;;;;;;;;;;;;;;5116042;28;19916;-83
2021/11/26 09:23:59;;;;;;;;;;;;;;;;;;5114653;28;19964;-73
2021/11/26 09:26:25;;;;;;;;;;;;;;;;;;5115650;28;19916;-73
2021/11/26 09:28:51;;;;;;;;;;;;;;;;;;5115547;28;20022;-80
2021/11/26 09:31:16;;;;;;;;;;;;;;;;;;5115606;28;19916;-79
2021/11/26 09:33:43;;;;;;;;;;;;;;;;;;5115492;28;19919;-75
2021/11/26 09:36:09;;;;;;;;;;;;;;;;;;5114356;28;20390;-73
2021/11/26 09:38:36;;;;;;;;;;;;;;;;;;5114955;28;20352;-75
2021/11/26 09:41:03;;;;;;;;;;;;;;;;;;5116722;28;19916;-74
2021/11/26 09:43:30;;;;;;;;;;;;;;;;;;5118235;28;19975;-75
2021/11/26 09:45:56;;;;;;;;;;;;;;;;;;5118226;28;19959;-78
2021/11/26 09:48:22;;;;;;;;;;;;;;;;;;5116158;28;20286;-74
2021/11/26 09:50:48;;;;;;;;;;;;;;;;;;5115389;28;19915;-76
2021/11/26 09:53:14;;;;;;;;;;;;;;;;;;5115178;28;19962;-73
2021/11/26 09:55:42;;;;;;;;;;;;;;;;;;5115131;28;19927;-73
2021/11/26 09:58:08;;;;;;;;;;;;;;;;;;5115450;28;19965;-74
2021/11/26 10:00:33;;;;;;;;;;;;;;;;;;5115509;28;19916;-75
2021/11/26 10:02:59;;;;;;;;;;;;;;;;;;5114300;28;19916;-79
2021/11/26 10:05:25;;;;;;;;;;;;;;;;;;5115772;28;20400;-74
2021/11/26 10:07:55;;;;;;;;;;;;;;;;;;5115616;28;19915;-74
2021/11/26 10:10:22;;;;;;;;;;;;;;;;;;5115357;28;20286;-74
2021/11/26 10:12:57;;;;;;;;;;;;;;;;;;5115446;28;19916;-75
2021/11/26 10:15:29;;;;;;;;;;;;;;;;;;5114744;28;19994;-74
2021/11/26 10:18:09;;;;;;;;;;;;;;;;;;5114549;28;19920;-74
2021/11/26 10:20:35;;;;;;;;;;;;;;;;;;5117367;28;20290;-73
2021/11/26 10:23:33;;;;;;;;;;;;;;;;;;5118314;28;19915;-74
2021/11/26 10:26:19;;;;;;;;;;;;;;;;;;5117530;28;19923;-72
2021/11/26 10:28:48;;;;;;;;;;;;;;;;;;5116052;28;20010;-73
2021/11/26 10:31:18;;;;;;;;;;;;;;;;;;5116318;28;19916;-73
2021/11/26 10:33:44;;;;;;;;;;;;;;;;;;5118851;28;19955;-73
2021/11/26 10:36:10;;;;;;;;;;;;;;;;;;5114277;28;19943;-74
2021/11/26 10:38:36;;;;;;;;;;;;;;;;;;5120916;27;19916;-75
2021/11/26 10:41:05;;;;;;;;;;;;;;;;;;5121464;28;19919;-76
2021/11/26 10:59:09;;;;;;;;;;;;;;;;;;5131196;28;20283;-74
2021/11/26 11:01:43;;;;;;;;;;;;;;;;;;5125466;27;20282;-74
2021/11/26 11:04:13;;;;;;;;;;;;;;;;;;5127880;27;19924;-74
2021/11/26 11:06:38;;;;;;;;;;;;;;;;;;5118315;28;19963;-75
2021/11/26 11:09:06;;;;;;;;;;;;;;;;;;5121646;28;20323;-75
2021/11/26 11:11:32;;;;;;;;;;;;;;;;;;5126034;28;19920;-75
2021/11/26 11:13:58;;;;;;;;;;;;;;;;;;5125705;27;20358;-75
2021/11/26 11:16:25;;;;;;;;;;;;;;;;;;5126315;27;19919;-75
2021/11/26 11:18:50;;;;;;;;;;;;;;;;;;5127084;27;19919;-73
2021/11/26 11:21:16;;;;;;;;;;;;;;;;;;5122448;27;19923;-74
2021/11/26 11:23:42;;;;;;;;;;;;;;;;;;5123763;27;19949;-73
2021/11/26 11:26:07;;;;;;;;;;;;;;;;;;5122134;27;19919;-73
2021/11/26 11:28:33;;;;;;;;;;;;;;;;;;5124222;27;20359;-72
2021/11/26 11:30:59;;;;;;;;;;;;;;;;;;5124173;27;19915;-79
2021/11/26 11:33:25;;;;;;;;;;;;;;;;;;5118063;28;20401;-72
2021/11/26 11:35:51;;;;;;;;;;;;;;;;;;5117945;28;19984;-73
2021/11/26 11:38:17;;;;;;;;;;;;;;;;;;5118102;28;19916;-72
2021/11/26 11:40:44;;;;;;;;;;;;;;;;;;5131987;28;19958;-74
2021/11/26 11:43:16;;;;;;;;;;;;;;;;;;5137667;28;19920;-72
2021/11/26 11:46:03;;;;;;;;;;;;;;;;;;5118733;27;19923;-74
2021/11/26 11:48:30;;;;;;;;;;;;;;;;;;5127628;27;19921;-73
2021/11/26 11:50:56;;;;;;;;;;;;;;;;;;5128085;27;20349;-73
2021/11/26 11:53:29;;;;;;;;;;;;;;;;;;5131917;27;19926;-73
2021/11/26 11:56:02;;;;;;;;;;;;;;;;;;5131209;27;19920;-74
2021/11/26 11:58:37;;;;;;;;;;;;;;;;;;5134853;27;19920;-74
2021/11/26 12:01:02;;;;;;;;;;;;;;;;;;5137143;27;19915;-74
2021/11/26 12:03:28;;;;;;;;;;;;;;;;;;5137168;27;19967;-75
2021/11/26 12:05:58;;;;;;;;;;;;;;;;;;5134694;27;19949;-76
2021/11/26 12:08:25;;;;;;;;;;;;;;;;;;5126225;27;19916;-76
2021/11/26 12:11:00;;;;;;;;;;;;;;;;;;5117796;27;19931;-79
2021/11/26 12:13:30;;;;;;;;;;;;;;;;;;5122785;27;19919;-75
2021/11/26 12:16:15;;;;;;;;;;;;;;;;;;5125033;27;19916;-75
2021/11/26 12:18:41;;;;;;;;;;;;;;;;;;5137270;27;19964;-74
2021/11/26 12:21:06;;;;;;;;;;;;;;;;;;5125875;27;20383;-73
2021/11/26 12:23:49;;;;;;;;;;;;;;;;;;5124531;27;20014;-71
2021/11/26 12:26:21;;;;;;;;;;;;;;;;;;5124408;27;19927;-74
2021/11/26 12:29:00;;;;;;;;;;;;;;;;;;5129180;27;19965;-72
2021/11/26 12:31:30;;;;;;;;;;;;;;;;;;5116679;28;20016;-72
2021/11/26 12:33:57;;;;;;;;;;;;;;;;;;5115510;28;19912;-72
2021/11/26 12:36:23;;;;;;;;;;;;;;;;;;5116106;28;20362;-72
2021/11/26 12:38:50;;;;;;;;;;;;;;;;;;5116411;28;20002;-72
2021/11/26 12:41:34;;;;;;;;;;;;;;;;;;5116391;27;19915;-72
2021/11/26 12:44:01;;;;;;;;;;;;;;;;;;5116573;27;19911;-72
2021/11/26 12:46:28;;;;;;;;;;;;;;;;;;5116285;28;19961;-72
2021/11/26 12:49:15;;;;;;;;;;;;;;;;;;5114907;28;19916;-72
2021/11/26 12:51:41;;;;;;;;;;;;;;;;;;5114984;28;19927;-72
2021/11/26 12:54:07;;;;;;;;;;;;;;;;;;5116139;28;19917;-72
2021/11/26 12:56:33;;;;;;;;;;;;;;;;;;5116073;28;19961;-72
2021/11/26 12:58:59;;;;;;;;;;;;;;;;;;5116084;28;20414;-72
2021/11/26 13:01:24;;;;;;;;;;;;;;;;;;5116228;27;19920;-71
2021/11/26 13:03:50;;;;;;;;;;;;;;;;;;5116055;28;20336;-72
2021/11/26 13:06:23;;;;;;;;;;;;;;;;;;5116137;28;19912;-72
2021/11/26 13:08:58;;;;;;;;;;;;;;;;;;5116500;28;20365;-72
2021/11/26 13:11:23;;;;;;;;;;;;;;;;;;5114543;28;19916;-72
2021/11/26 13:13:49;;;;;;;;;;;;;;;;;;5115753;28;19919;-72
2021/11/26 13:16:14;;;;;;;;;;;;;;;;;;5115519;28;19973;-72
2021/11/26 13:18:40;;;;;;;;;;;;;;;;;;5115671;28;19965;-72
2021/11/26 13:21:06;;;;;;;;;;;;;;;;;;5115591;28;20045;-72
2021/11/26 13:23:33;;;;;;;;;;;;;;;;;;5115842;28;19919;-72
2021/11/26 13:26:02;;;;;;;;;;;;;;;;;;5115523;28;20004;-72
2021/11/26 13:28:31;;;;;;;;;;;;;;;;;;5115368;28;20390;-72
2021/11/26 13:31:23;;;;;;;;;;;;;;;;;;5114203;28;20053;-72
2021/11/26 13:33:49;;;;;;;;;;;;;;;;;;5113306;28;19923;-72
2021/11/26 13:36:19;;;;;;;;;;;;;;;;;;5115395;28;19915;-72
2021/11/26 13:38:46;;;;;;;;;;;;;;;;;;5115659;28;19912;-72
2021/11/26 13:41:14;;;;;;;;;;;;;;;;;;5114361;28;20220;-72
2021/11/26 13:43:46;;;;;;;;;;;;;;;;;;5115167;28;19916;-72
2021/11/26 13:46:23;;;;;;;;;;;;;;;;;;5115152;28;19969;-72
2021/11/26 13:48:50;;;;;;;;;;;;;;;;;;5115000;28;19923;-72
2021/11/26 13:51:17;;;;;;;;;;;;;;;;;;5115072;28;19955;-72
2021/11/26 13:53:45;;;;;;;;;;;;;;;;;;5115256;28;19923;-72
2021/11/26 13:56:10;;;;;;;;;;;;;;;;;;5115161;28;19916;-72
2021/11/26 13:58:36;;;;;;;;;;;;;;;;;;5113663;28;20027;-72
2021/11/26 14:01:02;;;;;;;;;;;;;;;;;;5114905;28;19912;-71
2021/11/26 14:03:28;;;;;;;;;;;;;;;;;;5115138;28;20282;-72
2021/11/26 14:05:54;;;;;;;;;;;;;;;;;;5114773;28;19920;-71
2021/11/26 14:08:19;;;;;;;;;;;;;;;;;;5114705;28;20387;-73
2021/11/26 14:10:46;;;;;;;;;;;;;;;;;;5130697;27;19919;-72
2021/11/26 14:13:12;;;;;;;;;;;;;;;;;;5114697;28;19915;-72
2021/11/26 14:15:37;;;;;;;;;;;;;;;;;;5114717;28;19920;-72
2021/11/26 14:18:10;;;;;;;;;;;;;;;;;;5114561;28;20379;-72
2021/11/26 14:20:38;;;;;;;;;;;;;;;;;;5114583;28;20379;-72
2021/11/26 14:23:08;;;;;;;;;;;;;;;;;;5114576;28;20367;-72
2021/11/26 14:25:33;;;;;;;;;;;;;;;;;;5114565;28;19916;-72
2021/11/26 14:28:09;;;;;;;;;;;;;;;;;;5113202;28;20367;-72
2021/11/26 14:30:34;;;;;;;;;;;;;;;;;;5130411;27;20356;-72
2021/11/26 14:33:06;;;;;;;;;;;;;;;;;;5114398;28;19920;-72
2021/11/26 14:35:35;;;;;;;;;;;;;;;;;;5114401;28;20002;-73
2021/11/26 14:38:03;;;;;;;;;;;;;;;;;;5114415;28;20014;-71
2021/11/26 14:40:29;;;;;;;;;;;;;;;;;;5113210;28;19923;-72
2021/11/26 14:43:06;;;;;;;;;;;;;;;;;;5114340;28;19963;-71
2021/11/26 14:45:36;;;;;;;;;;;;;;;;;;5114571;28;19952;-75
2021/11/26 14:48:13;;;;;;;;;;;;;;;;;;5114356;28;19916;-71
2021/11/26 14:50:39;;;;;;;;;;;;;;;;;;5118582;28;19960;-71
2021/11/26 14:53:09;;;;;;;;;;;;;;;;;;5118488;28;20002;-71
2021/11/26 14:55:35;;;;;;;;;;;;;;;;;;5118547;28;19916;-71
2021/11/26 14:58:00;;;;;;;;;;;;;;;;;;5118525;28;19916;-71
2021/11/26 15:00:26;;;;;;;;;;;;;;;;;;5118803;28;20341;-71
2021/11/26 15:02:51;;;;;;;;;;;;;;;;;;5132494;28;19923;-71
2021/11/26 15:05:17;;;;;;;;;;;;;;;;;;5135449;28;20389;-71
2021/11/26 15:07:43;;;;;;;;;;;;;;;;;;5118734;27;19920;-72
2021/11/26 15:10:08;;;;;;;;;;;;;;;;;;5118423;28;20350;-71
2021/11/26 15:12:35;;;;;;;;;;;;;;;;;;5118272;28;19916;-72
2021/11/26 15:15:01;;;;;;;;;;;;;;;;;;5118144;28;19920;-72
2021/11/26 15:17:26;;;;;;;;;;;;;;;;;;5117863;28;19964;-71
2021/11/26 15:19:52;;;;;;;;;;;;;;;;;;5118056;28;19916;-71
2021/11/26 15:22:18;;;;;;;;;;;;;;;;;;5118094;28;19919;-72
2021/11/26 15:24:43;;;;;;;;;;;;;;;;;;5118274;28;19916;-72
2021/11/26 15:27:09;;;;;;;;;;;;;;;;;;5117864;28;19920;-71
2021/11/26 15:29:34;;;;;;;;;;;;;;;;;;5117660;28;19916;-72
2021/11/26 15:32:00;;;;;;;;;;;;;;;;;;5117886;28;19939;-72
2021/11/26 15:34:25;;;;;;;;;;;;;;;;;;5117671;28;19919;-72
2021/11/26 15:36:51;;;;;;;;;;;;;;;;;;5117554;28;19923;-72
2021/11/26 15:39:17;;;;;;;;;;;;;;;;;;5117893;27;20056;-71
2021/11/26 15:41:43;;;;;;;;;;;;;;;;;;5117594;28;19912;-72
2021/11/26 15:44:08;;;;;;;;;;;;;;;;;;5117493;28;19916;-71
2021/11/26 15:46:34;;;;;;;;;;;;;;;;;;5117494;28;19916;-72
2021/11/26 15:49:00;;;;;;;;;;;;;;;;;;5117283;28;20290;-72
2021/11/26 15:51:26;;;;;;;;;;;;;;;;;;5117566;28;19939;-72
2021/11/26 15:53:51;;;;;;;;;;;;;;;;;;5117402;28;19998;-72
2021/11/26 15:56:17;;;;;;;;;;;;;;;;;;5117483;28;20435;-72
2021/11/26 15:58:44;;;;;;;;;;;;;;;;;;5117401;28;19959;-73
2021/11/26 16:01:10;;;;;;;;;;;;;;;;;;5117242;28;19937;-73
2021/11/26 16:03:36;;;;;;;;;;;;;;;;;;5117219;28;20014;-75
2021/11/26 16:06:01;;;;;;;;;;;;;;;;;;5123776;27;20025;-72
2021/11/26 16:08:26;;;;;;;;;;;;;;;;;;5126748;27;20011;-76
2021/11/26 16:10:54;;;;;;;;;;;;;;;;;;5124105;27;19971;-80
2021/11/26 16:13:20;;;;;;;;;;;;;;;;;;5127416;27;19927;-73
2021/11/26 16:15:45;;;;;;;;;;;;;;;;;;5126295;27;19920;-74
2021/11/26 16:18:11;;;;;;;;;;;;;;;;;;5122322;27;19920;-76
2021/11/26 16:20:36;;;;;;;;;;;;;;;;;;5116829;28;19916;-76
2021/11/26 16:23:02;;;;;;;;;;;;;;;;;;5116765;28;20393;-75
2021/11/26 16:25:29;;;;;;;;;;;;;;;;;;5132606;27;20275;-75
2021/11/26 16:27:55;;;;;;;;;;;;;;;;;;5116783;28;19916;-75
2021/11/26 16:30:21;;;;;;;;;;;;;;;;;;5122977;27;19915;-77
2021/11/26 16:33:33;;;;;;;;;;;;;;;;;;5125556;27;19926;-77
2021/11/26 16:35:38;;;;;;;;;;;;;;;;;;5124985;27;19926;-77
2021/11/26 16:38:04;;;;;;;;;;;;;;;;;;5124143;27;19937;-75
2021/11/26 16:40:29;;;;;;;;;;;;;;;;;;5120367;27;19923;-76
2021/11/26 16:42:55;;;;;;;;;;;;;;;;;;5116392;28;19916;-76
2021/11/26 16:45:24;;;;;;;;;;;;;;;;;;5122769;27;19941;-77
2021/11/26 16:47:50;;;;;;;;;;;;;;;;;;5122372;27;19920;-76
2021/11/26 16:50:16;;;;;;;;;;;;;;;;;;5120736;27;19965;-75
2021/11/26 16:52:41;;;;;;;;;;;;;;;;;;5122272;27;19920;-75
2021/11/26 16:55:07;;;;;;;;;;;;;;;;;;5123134;27;21503;-74
2021/11/26 16:57:32;;;;;;;;;;;;;;;;;;5125458;27;19923;-73
2021/11/26 16:59:58;;;;;;;;;;;;;;;;;;5131340;27;19915;-73